KABR

Aberdeen Regional Airport

Aberdeen, South Dakota, USA
METAR KABR 182153Z AUTO 06010KT 10SM FEW065 OVC080 24/12 A3003 RMK AO2 SLP162 T02390122
Observed Flight Rules
Jun-18 @ 21:53 UTC (48 minutes ago) Visual Flight Rules
Wind Visibility Clouds
60° at 10 knots 10 miles
  • Few at 6,500' AGL
  • Overcast at 8,000' AGL
Temperatures Readings
Current 24°C / 75°F
Dewpoint 12°C / 54°F
Humidity 47%
Altimeter 30.03" Hg
Pressure 1016.2 hPa
Elevation 397
METAR KABR 182153Z AUTO 06010KT 10SM FEW065 OVC080 24/12 A3003 RMK AO2 SLP162 T02390122
Observed Flight Rules
Jun-18 @ 21:53 UTC
(48 minutes ago)
VFR
Wind Visibility
60° at 10 knots 10 miles
Clouds
  • Few at 6,500' AGL
  • Overcast at 8,000' AGL
Temperature Dewpoint
24°C / 75°F 12°C / 54°F
Humidity Altimeter Pressure
47% 30.03" Hg 1016.2 hPa